createdAt,value
2018-05-11T00:01:36.812Z,11.97
2018-05-11T00:04:02.546Z,11.96
2018-05-11T00:06:28.272Z,11.95
2018-05-11T00:08:54.000Z,11.96
2018-05-11T00:11:19.725Z,11.93
2018-05-11T00:13:45.440Z,11.92
2018-05-11T00:16:11.176Z,11.91
2018-05-11T00:18:36.888Z,11.86
2018-05-11T00:21:02.633Z,11.85
2018-05-11T00:23:28.432Z,11.84
2018-05-11T00:25:54.106Z,11.79
2018-05-11T00:28:19.838Z,11.84
2018-05-11T00:30:45.561Z,11.84
2018-05-11T00:33:11.283Z,11.86
2018-05-11T00:35:37.011Z,11.85
2018-05-11T00:38:02.740Z,11.88
2018-05-11T00:40:28.453Z,11.94
2018-05-11T00:42:54.184Z,11.89
2018-05-11T00:45:19.904Z,11.92
2018-05-11T00:47:45.644Z,11.90
2018-05-11T00:50:11.360Z,11.95
2018-05-11T00:52:37.096Z,11.91
2018-05-11T00:55:15.185Z,11.95
2018-05-11T00:57:40.925Z,11.93
2018-05-11T01:00:06.643Z,11.93
2018-05-11T01:02:32.385Z,11.92
2018-05-11T01:04:58.108Z,11.93
2018-05-11T01:07:23.840Z,11.92
2018-05-11T01:09:49.591Z,11.92
2018-05-11T01:12:15.326Z,11.91
2018-05-11T01:14:41.041Z,11.93
2018-05-11T01:17:06.780Z,11.92
2018-05-11T01:19:32.506Z,11.89
2018-05-11T01:21:58.244Z,11.88
2018-05-11T01:24:23.964Z,11.92
2018-05-11T01:26:49.700Z,11.93
2018-05-11T01:29:15.429Z,11.90
2018-05-11T01:31:41.164Z,11.90
2018-05-11T01:34:06.896Z,11.90
2018-05-11T01:36:32.617Z,11.90
2018-05-11T01:38:58.353Z,11.87
2018-05-11T01:41:24.064Z,11.87
2018-05-11T01:43:49.800Z,11.87
2018-05-11T01:46:15.521Z,11.84
2018-05-11T01:48:41.253Z,11.83
2018-05-11T01:51:06.980Z,11.81
2018-05-11T01:53:32.737Z,11.80
2018-05-11T01:55:58.465Z,11.79
2018-05-11T01:58:24.205Z,11.78
2018-05-11T02:00:49.924Z,11.77
2018-05-11T02:03:15.736Z,11.79
2018-05-11T02:05:41.376Z,11.76
2018-05-11T02:08:07.120Z,11.78
2018-05-11T02:10:32.836Z,11.77
2018-05-11T02:12:58.577Z,11.72
2018-05-11T02:15:24.296Z,11.73
2018-05-11T02:17:50.035Z,11.74
2018-05-11T02:20:15.754Z,11.71
2018-05-11T02:22:41.485Z,11.68
2018-05-11T02:25:07.208Z,11.67
2018-05-11T02:27:32.937Z,11.70
2018-05-11T02:29:58.664Z,11.70
2018-05-11T02:32:24.397Z,11.73
2018-05-11T02:34:50.127Z,11.78
2018-05-11T02:37:15.856Z,11.76
2018-05-11T02:39:41.592Z,11.79
2018-05-11T02:42:07.312Z,11.77
2018-05-11T02:44:33.053Z,11.81
2018-05-11T02:46:58.777Z,11.73
2018-05-11T02:49:24.502Z,11.73
2018-05-11T02:51:50.219Z,11.68
2018-05-11T02:54:15.944Z,11.69
2018-05-11T02:56:41.669Z,11.67
2018-05-11T02:59:07.396Z,11.66
2018-05-11T03:01:33.130Z,11.70
2018-05-11T03:03:58.867Z,11.72
2018-05-11T03:06:24.584Z,11.62
2018-05-11T03:08:50.327Z,11.62
2018-05-11T03:11:16.051Z,11.61
2018-05-11T03:13:48.856Z,11.59
2018-05-11T03:16:14.583Z,11.57
2018-05-11T03:18:40.458Z,11.59
2018-05-11T03:21:06.032Z,11.56
2018-05-11T03:23:31.765Z,11.57
2018-05-11T03:25:57.489Z,11.57
2018-05-11T03:28:23.220Z,11.55
2018-05-11T03:30:48.933Z,11.56
2018-05-11T03:33:14.683Z,11.57
2018-05-11T03:35:40.424Z,11.55
2018-05-11T03:38:06.159Z,11.59
2018-05-11T03:40:31.872Z,11.56
2018-05-11T03:42:57.604Z,11.55
2018-05-11T03:45:23.321Z,11.53
2018-05-11T03:47:49.044Z,11.52
2018-05-11T03:50:14.774Z,11.48
2018-05-11T03:52:40.492Z,11.53
2018-05-11T03:55:06.232Z,11.47
2018-05-11T03:57:31.962Z,11.56
2018-05-11T03:59:57.709Z,11.45
2018-05-11T04:02:35.925Z,11.44
2018-05-11T04:05:14.101Z,11.40
2018-05-11T04:07:53.003Z,11.42
2018-05-11T04:10:18.740Z,11.45
2018-05-11T04:12:44.472Z,11.43
2018-05-11T04:15:10.204Z,11.52
2018-05-11T04:17:35.930Z,11.50
2018-05-11T04:20:01.663Z,11.49
2018-05-11T04:22:27.376Z,11.46
2018-05-11T04:24:53.107Z,11.47
2018-05-11T04:27:18.853Z,11.51
2018-05-11T04:29:44.583Z,11.53
2018-05-11T04:32:10.289Z,11.49
2018-05-11T04:34:36.020Z,11.49
2018-05-11T04:37:01.744Z,11.53
2018-05-11T04:39:27.471Z,11.58
2018-05-11T04:41:53.186Z,11.51
2018-05-11T04:44:18.919Z,11.49
2018-05-11T04:46:44.639Z,11.52
2018-05-11T04:49:10.376Z,11.52
2018-05-11T04:51:36.086Z,11.58
2018-05-11T04:54:01.824Z,11.57
2018-05-11T04:56:27.552Z,11.63
2018-05-11T04:58:53.289Z,11.60
2018-05-11T05:01:19.012Z,11.63
2018-05-11T05:03:44.724Z,11.65
2018-05-11T05:06:10.459Z,11.72
2018-05-11T05:08:36.196Z,11.64
2018-05-11T05:11:01.927Z,11.73
2018-05-11T05:13:27.657Z,11.72
2018-05-11T05:15:53.388Z,11.79
2018-05-11T05:18:19.117Z,11.73
2018-05-11T05:20:44.845Z,11.75
2018-05-11T05:23:10.564Z,11.80
2018-05-11T05:25:36.299Z,11.74
2018-05-11T05:28:02.024Z,11.72
2018-05-11T05:30:27.760Z,11.76
2018-05-11T05:32:53.492Z,11.81
2018-05-11T05:35:19.229Z,11.88
2018-05-11T05:37:44.956Z,11.87
2018-05-11T05:40:10.688Z,11.87
2018-05-11T05:42:36.425Z,11.88
2018-05-11T05:45:02.170Z,11.90
2018-05-11T05:47:27.891Z,11.87
2018-05-11T05:49:53.618Z,11.86
2018-05-11T05:52:19.336Z,11.88
2018-05-11T05:54:45.076Z,11.75
2018-05-11T05:57:10.795Z,11.83
2018-05-11T05:59:36.544Z,11.72
2018-05-11T06:02:02.286Z,11.67
2018-05-11T06:04:28.026Z,11.72
2018-05-11T06:06:53.755Z,11.80
2018-05-11T06:09:19.488Z,11.91
2018-05-11T06:11:45.218Z,11.98
2018-05-11T06:14:10.936Z,12.04
2018-05-11T06:16:36.742Z,12.07
2018-05-11T06:19:02.413Z,12.18
2018-05-11T06:21:28.153Z,12.23
2018-05-11T06:23:53.876Z,12.22
2018-05-11T06:26:19.608Z,12.44
2018-05-11T06:28:45.325Z,12.44
2018-05-11T06:31:11.080Z,12.36
2018-05-11T06:33:36.800Z,12.61
2018-05-11T06:36:02.541Z,12.70
2018-05-11T06:38:28.281Z,12.69
2018-05-11T06:40:54.033Z,12.54
2018-05-11T06:43:19.759Z,12.65
2018-05-11T06:45:45.499Z,12.88
2018-05-11T06:48:11.210Z,12.63
2018-05-11T06:50:36.945Z,12.85
2018-05-11T06:53:02.671Z,13.08
2018-05-11T06:55:28.410Z,13.10
2018-05-11T06:57:54.144Z,13.41
2018-05-11T07:00:19.872Z,13.12
2018-05-11T07:02:45.595Z,13.27
2018-05-11T07:05:11.331Z,13.21
2018-05-11T07:07:37.092Z,13.34
2018-05-11T07:10:02.803Z,13.72
2018-05-11T07:12:28.529Z,13.37
2018-05-11T07:14:54.256Z,13.25
2018-05-11T07:17:20.003Z,13.33
2018-05-11T07:19:45.745Z,13.47
2018-05-11T07:22:11.478Z,13.53
2018-05-11T07:24:37.207Z,13.53
2018-05-11T07:27:02.940Z,13.53
2018-05-11T07:29:28.665Z,13.43
2018-05-11T07:31:54.391Z,13.63
2018-05-11T07:34:20.111Z,13.88
2018-05-11T07:36:45.835Z,14.29
2018-05-11T07:39:11.556Z,14.44
2018-05-11T07:41:37.291Z,14.24
2018-05-11T07:44:03.017Z,14.19
2018-05-11T07:46:28.755Z,14.32
2018-05-11T07:48:54.473Z,14.45
2018-05-11T07:51:20.211Z,14.18
2018-05-11T07:53:45.924Z,14.26
2018-05-11T07:56:11.656Z,14.51
2018-05-11T07:58:37.383Z,14.39
2018-05-11T08:01:03.113Z,14.26
2018-05-11T08:03:28.958Z,14.43
2018-05-11T08:05:54.680Z,14.66
2018-05-11T08:08:20.418Z,14.89
2018-05-11T08:10:46.151Z,14.95
2018-05-11T08:13:11.881Z,14.90
2018-05-11T08:15:37.610Z,14.53
2018-05-11T08:18:03.345Z,14.84
2018-05-11T08:20:29.080Z,14.50
2018-05-11T08:22:54.808Z,14.83
2018-05-11T08:25:20.527Z,15.17
2018-05-11T08:27:46.269Z,14.76
2018-05-11T08:30:11.988Z,14.98
2018-05-11T08:32:37.727Z,15.25
2018-05-11T08:35:03.466Z,14.66
2018-05-11T08:37:29.201Z,15.12
2018-05-11T08:39:54.936Z,15.57
2018-05-11T08:42:20.709Z,15.21
2018-05-11T08:44:46.429Z,15.71
2018-05-11T08:47:12.168Z,15.78
2018-05-11T08:49:37.900Z,15.36
2018-05-11T08:52:03.642Z,16.02
2018-05-11T08:54:29.372Z,15.25
2018-05-11T08:56:55.181Z,15.45
2018-05-11T08:59:20.917Z,15.31
2018-05-11T09:01:46.661Z,15.90
2018-05-11T09:04:12.371Z,16.03
2018-05-11T09:06:38.106Z,16.13
2018-05-11T09:09:04.640Z,16.25
2018-05-11T09:11:31.358Z,16.23
2018-05-11T09:13:57.105Z,16.20
2018-05-11T09:16:22.849Z,16.50
2018-05-11T09:18:48.571Z,16.27
2018-05-11T09:21:14.314Z,15.97
2018-05-11T09:23:40.041Z,16.76
2018-05-11T09:26:05.772Z,17.37
2018-05-11T09:28:31.517Z,17.80
2018-05-11T09:30:57.249Z,18.49
2018-05-11T09:33:22.982Z,16.98
2018-05-11T09:35:48.710Z,17.84
2018-05-11T09:38:14.448Z,16.64
2018-05-11T09:40:40.171Z,16.32
2018-05-11T09:43:05.929Z,15.95
2018-05-11T09:45:31.673Z,16.59
2018-05-11T09:47:57.424Z,16.78
2018-05-11T09:50:23.147Z,17.74
2018-05-11T09:52:48.893Z,17.00
2018-05-11T09:55:14.631Z,17.45
2018-05-11T09:57:40.362Z,17.49
2018-05-11T10:00:06.096Z,18.24
2018-05-11T10:02:31.836Z,17.82
2018-05-11T10:04:57.563Z,17.53
2018-05-11T10:07:23.303Z,17.37
2018-05-11T10:09:49.054Z,17.78
2018-05-11T10:12:14.767Z,17.39
2018-05-11T10:14:40.491Z,18.15
2018-05-11T10:17:06.212Z,18.35
2018-05-11T10:19:31.940Z,18.08
2018-05-11T10:21:57.682Z,18.26
2018-05-11T10:24:23.413Z,18.48
2018-05-11T10:26:49.132Z,18.80
2018-05-11T10:29:16.440Z,19.13
2018-05-11T10:31:42.200Z,19.49
2018-05-11T10:34:07.936Z,18.98
2018-05-11T10:36:33.669Z,19.70
2018-05-11T10:38:59.420Z,19.03
2018-05-11T10:41:25.179Z,18.55
2018-05-11T10:43:50.930Z,18.27
2018-05-11T10:46:16.675Z,18.47
2018-05-11T10:48:42.582Z,18.06
2018-05-11T10:51:08.170Z,19.37
2018-05-11T10:53:33.923Z,18.83
2018-05-11T10:55:59.662Z,18.71
2018-05-11T10:58:25.423Z,19.19
2018-05-11T11:00:51.173Z,19.93
2018-05-11T11:03:16.930Z,19.35
2018-05-11T11:05:42.665Z,18.68
2018-05-11T11:08:08.412Z,19.29
2018-05-11T11:10:34.207Z,20.13
2018-05-11T11:12:59.970Z,20.29
2018-05-11T11:15:25.712Z,19.13
2018-05-11T11:17:51.460Z,18.45
2018-05-11T11:20:17.211Z,18.78
2018-05-11T11:22:43.004Z,18.93
2018-05-11T11:25:08.754Z,18.35
2018-05-11T11:27:34.568Z,18.48
2018-05-11T11:30:00.324Z,18.24
2018-05-11T11:32:26.078Z,17.76
2018-05-11T11:34:51.833Z,18.28
2018-05-11T11:37:17.589Z,18.28
2018-05-11T11:39:43.324Z,18.37
2018-05-11T11:42:09.101Z,19.57
2018-05-11T11:44:34.839Z,19.66
2018-05-11T11:47:00.606Z,19.16
2018-05-11T11:49:26.356Z,18.72
2018-05-11T11:51:52.097Z,18.11
2018-05-11T11:54:17.873Z,18.68
2018-05-11T11:56:43.668Z,18.37
2018-05-11T11:59:09.424Z,18.29
2018-05-11T12:01:35.302Z,19.78
2018-05-11T12:04:01.057Z,19.25
2018-05-11T12:06:26.800Z,19.01
2018-05-11T12:08:52.639Z,19.54
2018-05-11T12:11:18.295Z,19.67
2018-05-11T12:13:44.047Z,19.41
2018-05-11T12:16:11.847Z,19.76
2018-05-11T12:18:38.854Z,20.31
2018-05-11T12:21:04.653Z,19.39
2018-05-11T12:23:30.889Z,18.95
2018-05-11T12:25:56.987Z,19.11
2018-05-11T12:28:22.920Z,19.08
2018-05-11T12:30:48.640Z,19.12
2018-05-11T12:33:14.388Z,19.07
2018-05-11T12:35:40.136Z,19.45
2018-05-11T12:38:05.884Z,19.38
2018-05-11T12:40:31.639Z,18.71
2018-05-11T12:42:57.404Z,18.82
2018-05-11T12:45:23.136Z,19.03
2018-05-11T12:47:48.901Z,18.79
2018-05-11T12:50:14.669Z,19.35
2018-05-11T12:52:40.406Z,19.48
2018-05-11T12:55:06.156Z,19.30
2018-05-11T12:57:32.128Z,19.29
2018-05-11T12:59:57.875Z,18.83
2018-05-11T13:02:23.621Z,18.59
2018-05-11T13:04:49.367Z,19.00
2018-05-11T13:07:15.186Z,18.83
2018-05-11T13:09:40.852Z,18.91
2018-05-11T13:12:06.604Z,18.88
2018-05-11T13:14:32.410Z,19.26
2018-05-11T13:16:58.144Z,19.20
2018-05-11T13:19:23.889Z,19.25
2018-05-11T13:21:49.615Z,19.10
2018-05-11T13:24:15.385Z,19.12
2018-05-11T13:26:41.116Z,19.07
2018-05-11T13:29:06.847Z,18.67
2018-05-11T13:31:32.594Z,18.93
2018-05-11T13:33:58.384Z,19.09
2018-05-11T13:36:24.184Z,19.22
2018-05-11T13:38:49.859Z,19.07
2018-05-11T13:41:15.609Z,19.45
2018-05-11T13:43:41.360Z,19.40
2018-05-11T13:46:07.105Z,19.25
2018-05-11T13:48:32.975Z,19.25
2018-05-11T13:50:58.627Z,19.38
2018-05-11T13:53:24.361Z,19.27
2018-05-11T13:55:50.112Z,19.46
2018-05-11T13:58:15.852Z,19.74
2018-05-11T14:00:41.595Z,19.85
2018-05-11T14:03:07.331Z,20.54
2018-05-11T14:05:33.065Z,19.69
2018-05-11T14:07:58.828Z,19.33
2018-05-11T14:10:24.669Z,20.39
2018-05-11T14:12:50.317Z,19.60
2018-05-11T14:15:22.029Z,19.59
2018-05-11T14:17:47.774Z,19.84
2018-05-11T14:20:13.529Z,19.83
2018-05-11T14:22:39.257Z,19.35
2018-05-11T14:25:05.016Z,19.37
2018-05-11T14:27:30.758Z,19.36
2018-05-11T14:29:56.510Z,19.17
2018-05-11T14:32:22.249Z,19.04
2018-05-11T14:34:48.025Z,19.13
2018-05-11T14:37:13.768Z,18.96
2018-05-11T14:39:39.521Z,19.14
2018-05-11T14:42:05.253Z,19.28
2018-05-11T14:44:31.003Z,19.14
2018-05-11T14:46:56.740Z,19.11
2018-05-11T14:49:22.492Z,19.06
2018-05-11T14:51:48.226Z,18.98
2018-05-11T14:54:13.980Z,19.36
2018-05-11T14:56:39.746Z,19.68
2018-05-11T14:59:05.757Z,18.90
2018-05-11T15:01:31.488Z,19.01
2018-05-11T15:03:57.232Z,19.17
2018-05-11T15:06:22.996Z,19.39
2018-05-11T15:08:48.746Z,19.59
2018-05-11T15:11:14.496Z,19.75
2018-05-11T15:13:40.237Z,19.79
2018-05-11T15:16:05.975Z,19.93
2018-05-11T15:18:31.725Z,19.78
2018-05-11T15:20:57.472Z,19.58
2018-05-11T15:23:23.228Z,19.12
2018-05-11T15:25:48.996Z,19.19
2018-05-11T15:28:14.745Z,19.43
2018-05-11T15:30:40.501Z,19.49
2018-05-11T15:33:06.235Z,18.96
2018-05-11T15:35:32.005Z,19.99
2018-05-11T15:37:57.750Z,20.17
2018-05-11T15:40:23.516Z,20.10
2018-05-11T15:42:49.241Z,19.78
2018-05-11T15:45:14.996Z,19.46
2018-05-11T15:47:40.741Z,19.59
2018-05-11T15:50:06.497Z,19.28
2018-05-11T15:52:32.229Z,19.53
2018-05-11T15:54:58.005Z,19.65
2018-05-11T15:57:23.734Z,19.78
2018-05-11T15:59:49.501Z,19.67
2018-05-11T16:02:15.231Z,19.47
2018-05-11T16:04:40.980Z,19.50
2018-05-11T16:07:06.723Z,19.38
2018-05-11T16:09:32.480Z,19.23
2018-05-11T16:11:58.222Z,19.52
2018-05-11T16:14:23.960Z,19.41
2018-05-11T16:16:49.717Z,19.26
2018-05-11T16:19:15.458Z,19.12
2018-05-11T16:21:41.201Z,19.02
2018-05-11T16:24:06.953Z,18.96
2018-05-11T16:26:32.693Z,19.01
2018-05-11T16:28:58.446Z,18.71
2018-05-11T16:31:24.177Z,18.71
2018-05-11T16:33:49.941Z,18.50
2018-05-11T16:36:15.705Z,18.60
2018-05-11T16:38:41.432Z,18.69
2018-05-11T16:41:07.195Z,18.52
2018-05-11T16:43:32.936Z,18.84
2018-05-11T16:45:58.683Z,18.64
2018-05-11T16:48:24.421Z,18.99
2018-05-11T16:50:50.189Z,19.08
2018-05-11T16:53:15.929Z,18.80
2018-05-11T16:55:41.672Z,18.97
2018-05-11T16:58:07.409Z,18.55
2018-05-11T17:00:33.152Z,18.51
2018-05-11T17:02:58.885Z,18.29
2018-05-11T17:05:24.620Z,18.14
2018-05-11T17:07:50.358Z,18.25
2018-05-11T17:10:16.113Z,18.26
2018-05-11T17:12:41.849Z,18.08
2018-05-11T17:15:08.545Z,18.35
2018-05-11T17:17:34.292Z,18.10
2018-05-11T17:20:00.037Z,18.00
2018-05-11T17:22:25.768Z,17.93
2018-05-11T17:24:51.503Z,17.86
2018-05-11T17:27:17.468Z,17.81
2018-05-11T17:29:43.219Z,17.46
2018-05-11T17:32:09.110Z,17.40
2018-05-11T17:34:34.906Z,17.30
2018-05-11T17:37:00.636Z,17.39
2018-05-11T17:39:26.369Z,17.46
2018-05-11T17:41:52.131Z,17.65
2018-05-11T17:44:17.877Z,17.55
2018-05-11T17:46:43.612Z,17.50
2018-05-11T17:49:09.340Z,17.60
2018-05-11T17:51:35.093Z,17.57
2018-05-11T17:54:00.831Z,17.47
2018-05-11T17:56:26.576Z,17.20
2018-05-11T17:58:52.313Z,17.05
2018-05-11T18:01:18.064Z,17.03
2018-05-11T18:03:43.792Z,16.90
2018-05-11T18:06:09.536Z,16.86
2018-05-11T18:08:35.293Z,16.68
2018-05-11T18:11:01.037Z,16.60
2018-05-11T18:13:26.776Z,16.43
2018-05-11T18:15:52.525Z,16.43
2018-05-11T18:18:18.273Z,16.53
2018-05-11T18:20:44.032Z,16.40
2018-05-11T18:23:09.813Z,16.51
2018-05-11T18:25:35.522Z,16.46
2018-05-11T18:28:01.268Z,16.33
2018-05-11T18:30:27.011Z,16.28
2018-05-11T18:32:52.752Z,16.24
2018-05-11T18:35:18.479Z,16.12
2018-05-11T18:37:44.228Z,15.98
2018-05-11T18:40:09.975Z,15.78
2018-05-11T18:42:35.724Z,15.84
2018-05-11T18:45:01.473Z,15.70
2018-05-11T18:47:27.216Z,15.62
2018-05-11T18:49:52.952Z,15.55
2018-05-11T18:52:18.700Z,15.59
2018-05-11T18:54:44.518Z,15.41
2018-05-11T18:57:10.195Z,15.34
2018-05-11T18:59:35.936Z,15.30
2018-05-11T19:02:01.685Z,15.27
2018-05-11T19:04:27.421Z,15.27
2018-05-11T19:06:53.159Z,15.32
2018-05-11T19:09:18.894Z,15.21
2018-05-11T19:11:44.649Z,15.16
2018-05-11T19:14:10.380Z,15.13
2018-05-11T19:16:36.127Z,15.09
2018-05-11T19:19:01.864Z,14.94
2018-05-11T19:21:27.616Z,14.96
2018-05-11T19:23:53.352Z,14.84
2018-05-11T19:26:19.093Z,14.85
2018-05-11T19:28:44.833Z,14.80
2018-05-11T19:31:10.580Z,14.84
2018-05-11T19:33:36.317Z,14.84
2018-05-11T19:36:02.044Z,14.87
2018-05-11T19:38:27.793Z,14.89
2018-05-11T19:40:53.525Z,14.73
2018-05-11T19:43:19.274Z,14.66
2018-05-11T19:45:44.992Z,14.49
2018-05-11T19:48:10.728Z,14.61
2018-05-11T19:50:36.456Z,14.66
2018-05-11T19:53:02.192Z,14.63
2018-05-11T19:55:27.922Z,14.60
2018-05-11T19:57:53.668Z,14.55
2018-05-11T20:00:19.416Z,14.46
2018-05-11T20:02:45.148Z,14.55
2018-05-11T20:05:10.876Z,14.74
2018-05-11T20:07:36.619Z,14.65
2018-05-11T20:10:02.448Z,14.54
2018-05-11T20:12:28.109Z,14.48
2018-05-11T20:14:53.840Z,14.66
2018-05-11T20:17:19.588Z,14.62
2018-05-11T20:19:45.324Z,14.49
2018-05-11T20:22:11.064Z,14.51
2018-05-11T20:24:36.795Z,14.45
2018-05-11T20:27:02.585Z,14.46
2018-05-11T20:29:28.324Z,14.45
2018-05-11T20:31:54.061Z,14.54
2018-05-11T20:34:19.867Z,14.41
2018-05-11T20:36:45.633Z,14.41
2018-05-11T20:39:11.385Z,14.37
2018-05-11T20:41:37.197Z,14.40
2018-05-11T20:44:02.865Z,14.45
2018-05-11T20:46:28.624Z,14.31
2018-05-11T20:48:54.395Z,14.26
2018-05-11T20:51:20.129Z,14.25
2018-05-11T20:53:45.899Z,14.24
2018-05-11T20:56:11.652Z,14.20
2018-05-11T20:58:37.389Z,14.11
2018-05-11T21:01:03.124Z,14.01
2018-05-11T21:03:28.865Z,14.05
2018-05-11T21:05:54.601Z,14.21
2018-05-11T21:08:20.366Z,14.01
2018-05-11T21:10:46.120Z,13.94
2018-05-11T21:13:11.879Z,13.96
2018-05-11T21:15:37.626Z,14.01
2018-05-11T21:18:03.384Z,14.14
2018-05-11T21:20:29.112Z,14.24
2018-05-11T21:22:54.856Z,14.15
2018-05-11T21:25:20.585Z,14.18
2018-05-11T21:27:46.325Z,14.05
2018-05-11T21:30:12.061Z,14.22
2018-05-11T21:32:37.797Z,14.35
2018-05-11T21:35:03.548Z,14.31
2018-05-11T21:37:29.300Z,14.10
2018-05-11T21:39:55.045Z,14.06
2018-05-11T21:42:20.776Z,14.06
2018-05-11T21:44:46.522Z,13.79
2018-05-11T21:47:12.257Z,13.80
2018-05-11T21:49:38.004Z,13.97
2018-05-11T21:52:03.748Z,14.01
2018-05-11T21:54:29.500Z,14.00
2018-05-11T21:56:55.237Z,14.07
2018-05-11T21:59:20.991Z,13.74
2018-05-11T22:01:46.739Z,13.79
2018-05-11T22:04:12.488Z,13.90
2018-05-11T22:06:38.248Z,13.78
2018-05-11T22:09:05.026Z,13.84
2018-05-11T22:11:30.693Z,13.67
2018-05-11T22:13:56.428Z,13.67
2018-05-11T22:16:22.160Z,13.91
2018-05-11T22:18:47.900Z,13.74
2018-05-11T22:21:13.618Z,13.75
2018-05-11T22:23:39.349Z,13.90
2018-05-11T22:26:05.077Z,14.01
2018-05-11T22:28:30.812Z,13.91
2018-05-11T22:30:56.529Z,13.79
2018-05-11T22:33:22.304Z,13.73
2018-05-11T22:35:48.019Z,13.80
2018-05-11T22:38:13.761Z,13.97
2018-05-11T22:40:39.489Z,14.06
2018-05-11T22:43:05.232Z,14.01
2018-05-11T22:45:30.949Z,13.95
2018-05-11T22:47:56.729Z,13.87
2018-05-11T22:50:22.462Z,13.97
2018-05-11T22:52:48.192Z,13.84
2018-05-11T22:55:13.929Z,13.92
2018-05-11T22:57:39.651Z,13.75
2018-05-11T23:00:05.388Z,13.78
2018-05-11T23:02:31.125Z,13.87
2018-05-11T23:04:56.847Z,13.90
2018-05-11T23:07:22.573Z,13.86
2018-05-11T23:09:48.322Z,13.80
2018-05-11T23:12:14.058Z,13.89
2018-05-11T23:14:39.797Z,13.86
2018-05-11T23:17:05.521Z,13.96
2018-05-11T23:19:31.267Z,13.99
2018-05-11T23:21:56.996Z,13.97
2018-05-11T23:24:22.754Z,13.97
2018-05-11T23:26:48.486Z,13.95
2018-05-11T23:29:14.229Z,13.84
2018-05-11T23:31:39.960Z,13.76
2018-05-11T23:34:05.710Z,13.80
2018-05-11T23:36:31.431Z,13.92
2018-05-11T23:38:57.164Z,13.75
2018-05-11T23:41:22.897Z,13.85
2018-05-11T23:43:48.640Z,13.70
2018-05-11T23:46:14.376Z,13.62
2018-05-11T23:48:40.127Z,13.78
2018-05-11T23:51:05.873Z,13.76
2018-05-11T23:53:31.616Z,13.91
2018-05-11T23:55:57.354Z,13.87
2018-05-11T23:58:23.088Z,13.94
